createdAt,value
2017-05-11T00:01:55.419Z,8.10
2017-05-11T00:04:24.640Z,8.10
2017-05-11T00:06:53.831Z,8.20
2017-05-11T00:09:23.042Z,8.20
2017-05-11T00:11:52.247Z,8.10
2017-05-11T00:14:22.199Z,7.90
2017-05-11T00:16:51.390Z,8.10
2017-05-11T00:19:20.856Z,8.00
2017-05-11T00:21:50.063Z,8.10
2017-05-11T00:24:19.339Z,8.20
2017-05-11T00:26:48.544Z,8.30
2017-05-11T00:29:17.744Z,8.40
2017-05-11T00:31:46.933Z,8.50
2017-05-11T00:34:16.123Z,8.50
2017-05-11T00:36:45.440Z,8.60
2017-05-11T00:39:14.648Z,8.70
2017-05-11T00:41:43.847Z,8.60
2017-05-11T00:44:12.700Z,8.50
2017-05-11T00:46:41.999Z,8.50
2017-05-11T00:49:11.235Z,8.50
2017-05-11T00:51:40.423Z,8.30
2017-05-11T00:54:09.622Z,8.20
2017-05-11T00:56:38.828Z,8.20
2017-05-11T00:59:08.065Z,8.00
2017-05-11T01:01:38.017Z,7.90
2017-05-11T01:04:07.207Z,7.90
2017-05-11T01:06:36.396Z,7.90
2017-05-11T01:09:05.279Z,7.90
2017-05-11T01:11:35.203Z,7.90
2017-05-11T01:14:04.428Z,8.00
2017-05-11T01:16:33.631Z,8.00
2017-05-11T01:19:02.847Z,8.20
2017-05-11T01:21:32.719Z,8.30
2017-05-11T01:24:01.928Z,8.30
2017-05-11T01:26:31.124Z,8.40
2017-05-11T01:29:00.307Z,8.40
2017-05-11T01:31:30.342Z,8.30
2017-05-11T01:33:59.644Z,8.30
2017-05-11T01:36:28.844Z,8.30
2017-05-11T01:38:58.145Z,8.20
2017-05-11T01:41:27.335Z,8.10
2017-05-11T01:43:56.514Z,8.10
2017-05-11T01:46:26.459Z,8.20
2017-05-11T01:48:55.656Z,8.20
2017-05-11T01:51:24.853Z,8.10
2017-05-11T01:53:54.064Z,8.00
2017-05-11T01:56:23.264Z,8.00
2017-05-11T01:58:52.631Z,8.00
2017-05-11T02:01:22.567Z,8.10
2017-05-11T02:03:52.515Z,8.10
2017-05-11T02:06:21.706Z,8.20
2017-05-11T02:08:50.997Z,8.20
2017-05-11T02:11:20.187Z,8.20
2017-05-11T02:13:49.399Z,8.00
2017-05-11T02:16:18.607Z,7.80
2017-05-11T02:18:47.799Z,7.60
2017-05-11T02:21:17.020Z,7.50
2017-05-11T02:23:46.211Z,7.50
2017-05-11T02:26:15.407Z,7.50
2017-05-11T02:28:44.618Z,7.60
2017-05-11T02:31:13.799Z,7.60
2017-05-11T02:33:43.007Z,7.70
2017-05-11T02:36:12.355Z,7.70
2017-05-11T02:38:42.299Z,7.60
2017-05-11T02:41:11.508Z,7.50
2017-05-11T02:43:40.696Z,7.30
2017-05-11T02:46:09.900Z,7.10
2017-05-11T02:48:39.088Z,7.10
2017-05-11T02:51:09.069Z,7.00
2017-05-11T02:53:38.955Z,7.10
2017-05-11T02:56:08.179Z,7.20
2017-05-11T02:58:37.373Z,7.10
2017-05-11T03:01:06.583Z,7.00
2017-05-11T03:03:35.790Z,7.00
2017-05-11T03:06:04.979Z,6.90
2017-05-11T03:08:34.191Z,6.90
2017-05-11T03:11:03.387Z,6.80
2017-05-11T03:13:32.583Z,6.90
2017-05-11T03:16:01.784Z,6.90
2017-05-11T03:18:30.995Z,6.90
2017-05-11T03:21:00.215Z,7.00
2017-05-11T03:23:30.084Z,6.90
2017-05-11T03:26:00.035Z,6.90
2017-05-11T03:28:29.980Z,6.80
2017-05-11T03:30:59.174Z,6.70
2017-05-11T03:33:28.381Z,6.50
2017-05-11T03:35:57.566Z,6.50
2017-05-11T03:38:26.756Z,6.50
2017-05-11T03:40:56.662Z,6.40
2017-05-11T03:43:26.741Z,6.40
2017-05-11T03:45:56.828Z,6.60
2017-05-11T03:48:26.062Z,6.80
2017-05-11T03:50:55.266Z,6.80
2017-05-11T03:53:25.252Z,6.80
2017-05-11T03:55:54.567Z,6.90
2017-05-11T03:58:23.768Z,6.90
2017-05-11T04:00:52.999Z,6.90
2017-05-11T04:03:22.354Z,7.00
2017-05-11T04:05:51.586Z,7.00
2017-05-11T04:08:20.925Z,6.90
2017-05-11T04:10:50.875Z,6.80
2017-05-11T04:13:20.104Z,6.80
2017-05-11T04:15:49.299Z,6.80
2017-05-11T04:18:18.507Z,6.80
2017-05-11T04:20:47.724Z,6.80
2017-05-11T04:23:16.922Z,6.90
2017-05-11T04:25:46.159Z,7.10
2017-05-11T04:28:15.343Z,7.10
2017-05-11T04:30:45.292Z,7.00
2017-05-11T04:33:14.496Z,7.10
2017-05-11T04:35:43.687Z,7.10
2017-05-11T04:38:12.901Z,7.10
2017-05-11T04:40:42.097Z,7.20
2017-05-11T04:43:11.320Z,7.30
2017-05-11T04:45:41.287Z,7.40
2017-05-11T04:48:10.515Z,7.60
2017-05-11T04:50:39.691Z,7.70
2017-05-11T04:53:08.929Z,7.90
2017-05-11T04:55:38.132Z,8.00
2017-05-11T04:58:07.348Z,8.00
2017-05-11T05:00:36.567Z,8.20
2017-05-11T05:03:06.507Z,8.30
2017-05-11T05:05:35.745Z,8.50
2017-05-11T05:08:04.944Z,8.70
2017-05-11T05:10:34.163Z,8.90
2017-05-11T05:13:03.395Z,9.00
2017-05-11T05:15:32.839Z,9.20
2017-05-11T05:18:02.055Z,9.40
2017-05-11T05:20:31.278Z,9.70
2017-05-11T05:23:00.459Z,10.00
2017-05-11T05:25:29.728Z,10.40
2017-05-11T05:27:59.023Z,10.90
2017-05-11T05:30:28.219Z,11.20
2017-05-11T05:32:57.442Z,11.50
2017-05-11T05:35:27.322Z,11.60
2017-05-11T05:37:56.551Z,11.60
2017-05-11T05:40:25.863Z,11.50
2017-05-11T05:42:55.069Z,11.60
2017-05-11T05:45:25.007Z,11.60
2017-05-11T05:47:54.279Z,11.70
2017-05-11T05:50:23.511Z,11.80
2017-05-11T05:52:52.531Z,12.00
2017-05-11T05:55:21.756Z,12.20
2017-05-11T05:57:50.963Z,12.40
2017-05-11T06:00:20.212Z,12.40
2017-05-11T06:02:50.223Z,12.30
2017-05-11T06:05:19.415Z,12.30
2017-05-11T06:07:48.632Z,12.30
2017-05-11T06:10:18.592Z,12.30
2017-05-11T06:12:47.817Z,12.30
2017-05-11T06:15:17.028Z,12.30
2017-05-11T06:17:47.051Z,12.30
2017-05-11T06:20:16.315Z,12.30
2017-05-11T06:22:45.507Z,12.40
2017-05-11T06:25:14.828Z,12.40
2017-05-11T06:27:44.022Z,12.40
2017-05-11T06:30:14.078Z,12.40
2017-05-11T06:32:43.077Z,12.60
2017-05-11T06:35:12.277Z,12.80
2017-05-11T06:37:41.483Z,13.00
2017-05-11T06:40:11.443Z,13.10
2017-05-11T06:42:40.662Z,13.30
2017-05-11T06:45:09.956Z,13.20
2017-05-11T06:47:39.163Z,13.40
2017-05-11T06:50:08.391Z,13.50
2017-05-11T06:52:37.587Z,13.40
2017-05-11T06:55:06.788Z,13.40
2017-05-11T06:57:36.001Z,13.50
2017-05-11T07:00:06.001Z,13.50
2017-05-11T07:02:35.199Z,13.50
2017-05-11T07:05:04.537Z,13.40
2017-05-11T07:07:33.744Z,13.20
2017-05-11T07:10:02.964Z,13.20
2017-05-11T07:12:32.164Z,13.30
2017-05-11T07:15:01.356Z,13.20
2017-05-11T07:17:30.657Z,13.30
2017-05-11T07:19:59.984Z,13.40
2017-05-11T07:22:29.195Z,13.50
2017-05-11T07:24:58.452Z,13.80
2017-05-11T07:27:27.644Z,14.00
2017-05-11T07:29:56.847Z,14.20
2017-05-11T07:32:26.131Z,14.40
2017-05-11T07:34:56.085Z,14.40
2017-05-11T07:37:25.297Z,14.50
2017-05-11T07:39:54.663Z,14.70
2017-05-11T07:42:23.874Z,14.80
2017-05-11T07:44:54.484Z,14.70
2017-05-11T07:47:23.703Z,14.70
2017-05-11T07:49:52.900Z,14.70
2017-05-11T07:52:22.105Z,14.70
2017-05-11T07:54:51.123Z,14.90
2017-05-11T07:57:20.324Z,15.10
2017-05-11T07:59:49.525Z,15.20
2017-05-11T08:02:18.768Z,15.30
2017-05-11T08:04:48.715Z,15.20
2017-05-11T08:07:17.927Z,15.50
2017-05-11T08:09:47.117Z,15.70
2017-05-11T08:12:17.429Z,15.60
2017-05-11T08:14:46.608Z,15.70
2017-05-11T08:17:16.592Z,15.60
2017-05-11T08:19:45.800Z,15.60
2017-05-11T08:22:15.004Z,15.90
2017-05-11T08:24:44.219Z,16.00
2017-05-11T08:27:14.165Z,16.30
2017-05-11T08:29:43.378Z,16.70
2017-05-11T08:32:13.251Z,17.10
2017-05-11T08:34:43.212Z,16.80
2017-05-11T08:37:12.400Z,16.80
2017-05-11T08:39:41.662Z,17.10
2017-05-11T08:42:10.856Z,17.30
2017-05-11T08:44:40.137Z,17.60
2017-05-11T08:47:09.377Z,17.60
2017-05-11T08:49:38.589Z,17.80
2017-05-11T08:52:07.772Z,17.90
2017-05-11T08:54:36.993Z,18.00
2017-05-11T08:57:06.170Z,18.20
2017-05-11T08:59:35.376Z,18.40
2017-05-11T09:02:04.603Z,18.50
2017-05-11T09:04:33.828Z,18.30
2017-05-11T09:07:03.040Z,18.20
2017-05-11T09:09:32.240Z,18.00
2017-05-11T09:12:01.435Z,18.10
2017-05-11T09:14:30.688Z,18.00
2017-05-11T09:16:59.902Z,18.00
2017-05-11T09:19:29.224Z,18.10
2017-05-11T09:21:58.444Z,18.10
2017-05-11T09:24:28.327Z,17.90
2017-05-11T09:26:57.546Z,17.90
2017-05-11T09:29:26.747Z,17.90
2017-05-11T09:31:55.949Z,17.90
2017-05-11T09:34:25.144Z,18.00
2017-05-11T09:36:54.367Z,18.20
2017-05-11T09:39:23.568Z,18.30
2017-05-11T09:41:52.777Z,18.40
2017-05-11T09:44:21.955Z,18.40
2017-05-11T09:46:51.144Z,18.50
2017-05-11T09:49:20.357Z,18.70
2017-05-11T09:51:49.555Z,18.90
2017-05-11T09:54:18.763Z,19.00
2017-05-11T09:56:47.957Z,19.20
2017-05-11T09:59:17.163Z,19.30
2017-05-11T10:01:47.084Z,19.30
2017-05-11T10:04:16.309Z,19.20
2017-05-11T10:06:45.506Z,19.40
2017-05-11T10:09:14.695Z,19.60
2017-05-11T10:11:43.920Z,19.70
2017-05-11T10:14:13.183Z,19.80
2017-05-11T10:16:42.456Z,19.80
2017-05-11T10:19:11.658Z,20.00
2017-05-11T10:21:40.847Z,20.30
2017-05-11T10:24:10.051Z,20.50
2017-05-11T10:26:39.240Z,20.50
2017-05-11T10:29:08.452Z,20.60
2017-05-11T10:31:37.664Z,20.70
2017-05-11T10:34:06.863Z,20.70
2017-05-11T10:36:36.083Z,20.70
2017-05-11T10:39:06.009Z,20.70
2017-05-11T10:41:35.442Z,21.00
2017-05-11T10:44:04.639Z,21.20
2017-05-11T10:46:33.862Z,21.30
2017-05-11T10:49:03.162Z,21.40
2017-05-11T10:51:32.376Z,21.60
2017-05-11T10:54:01.592Z,21.70
2017-05-11T10:56:30.805Z,21.90
2017-05-11T10:59:00.001Z,22.00
2017-05-11T11:01:29.188Z,22.00
2017-05-11T11:03:58.415Z,22.00
2017-05-11T11:06:27.607Z,22.30
2017-05-11T11:08:56.822Z,22.20
2017-05-11T11:11:26.003Z,22.30
2017-05-11T11:13:55.976Z,22.60
2017-05-11T11:16:25.157Z,22.60
2017-05-11T11:18:54.339Z,22.40
2017-05-11T11:21:23.631Z,22.40
2017-05-11T11:23:52.820Z,22.70
2017-05-11T11:26:22.771Z,22.90
2017-05-11T11:28:51.959Z,23.00
2017-05-11T11:31:21.156Z,22.90
2017-05-11T11:33:50.363Z,22.80
2017-05-11T11:36:19.551Z,22.80
2017-05-11T11:38:48.739Z,22.90
2017-05-11T11:41:17.949Z,23.00
2017-05-11T11:43:47.149Z,23.00
2017-05-11T11:46:16.396Z,23.30
2017-05-11T11:48:45.620Z,23.30
2017-05-11T11:51:15.584Z,23.50
2017-05-11T11:53:44.767Z,24.00
2017-05-11T11:56:13.992Z,24.00
2017-05-11T11:58:43.218Z,24.20
2017-05-11T12:01:13.110Z,24.10
2017-05-11T12:03:42.310Z,24.10
2017-05-11T12:06:11.579Z,24.00
2017-05-11T12:08:40.808Z,24.00
2017-05-11T12:11:10.015Z,24.10
2017-05-11T12:13:39.559Z,24.00
2017-05-11T12:16:09.499Z,24.00
2017-05-11T12:18:38.724Z,24.20
2017-05-11T12:21:07.931Z,24.40
2017-05-11T12:23:37.133Z,24.40
2017-05-11T12:26:06.347Z,24.90
2017-05-11T12:28:35.551Z,24.90
2017-05-11T12:31:04.767Z,24.80
2017-05-11T12:33:34.727Z,24.80
2017-05-11T12:36:03.948Z,24.70
2017-05-11T12:38:33.151Z,24.50
2017-05-11T12:41:03.043Z,24.70
2017-05-11T12:43:32.471Z,24.80
2017-05-11T12:46:01.687Z,24.70
2017-05-11T12:48:30.894Z,25.20
2017-05-11T12:51:00.120Z,25.50
2017-05-11T12:53:30.093Z,25.50
2017-05-11T12:55:59.280Z,25.70
2017-05-11T12:58:29.167Z,25.90
2017-05-11T13:00:58.382Z,25.50
2017-05-11T13:03:27.575Z,25.30
2017-05-11T13:05:56.798Z,25.20
2017-05-11T13:08:26.016Z,25.20
2017-05-11T13:10:55.239Z,25.20
2017-05-11T13:13:24.451Z,25.10
2017-05-11T13:15:53.640Z,24.80
2017-05-11T13:18:22.826Z,24.60
2017-05-11T13:20:52.044Z,24.80
2017-05-11T13:23:21.232Z,24.90
2017-05-11T13:25:50.447Z,25.30
2017-05-11T13:28:19.646Z,25.60
2017-05-11T13:30:49.561Z,25.50
2017-05-11T13:33:18.764Z,25.50
2017-05-11T13:35:47.968Z,25.50
2017-05-11T13:38:17.203Z,25.30
2017-05-11T13:40:46.396Z,25.50
2017-05-11T13:43:15.607Z,25.50
2017-05-11T13:45:45.551Z,25.40
2017-05-11T13:48:14.770Z,25.30
2017-05-11T13:50:43.957Z,25.40
2017-05-11T13:53:13.209Z,25.20
2017-05-11T13:55:42.404Z,24.90
2017-05-11T13:58:11.655Z,24.80
2017-05-11T14:00:40.899Z,24.60
2017-05-11T14:03:10.106Z,24.40
2017-05-11T14:05:39.389Z,24.10
2017-05-11T14:08:08.567Z,23.90
2017-05-11T14:10:37.793Z,23.60
2017-05-11T14:13:07.033Z,23.20
2017-05-11T14:15:36.228Z,22.90
2017-05-11T14:18:05.500Z,22.60
2017-05-11T14:20:35.371Z,22.20
2017-05-11T14:23:04.601Z,22.10
2017-05-11T14:25:33.804Z,21.90
2017-05-11T14:28:03.006Z,21.70
2017-05-11T14:30:32.209Z,21.60
2017-05-11T14:33:01.416Z,21.40
2017-05-11T14:35:30.618Z,21.20
2017-05-11T14:37:59.660Z,21.00
2017-05-11T14:40:28.667Z,20.80
2017-05-11T14:42:57.940Z,20.80
2017-05-11T14:45:27.275Z,20.70
2017-05-11T14:47:56.427Z,20.50
2017-05-11T14:50:25.640Z,20.40
2017-05-11T14:52:54.823Z,20.50
2017-05-11T14:55:24.050Z,20.70
2017-05-11T14:57:53.288Z,20.70
2017-05-11T15:00:22.523Z,20.80
2017-05-11T15:02:51.765Z,20.80
2017-05-11T15:05:20.971Z,20.90
2017-05-11T15:07:50.235Z,21.00
2017-05-11T15:10:19.408Z,21.00
2017-05-11T15:12:48.636Z,21.20
2017-05-11T15:15:17.830Z,21.30
2017-05-11T15:17:47.027Z,21.10
2017-05-11T15:20:16.250Z,20.80
2017-05-11T15:22:45.442Z,20.50
2017-05-11T15:25:14.652Z,20.40
2017-05-11T15:27:43.844Z,20.30
2017-05-11T15:30:13.052Z,20.30
2017-05-11T15:32:42.276Z,20.30
2017-05-11T15:35:11.467Z,20.40
2017-05-11T15:37:40.708Z,20.70
2017-05-11T15:40:09.911Z,21.00
2017-05-11T15:42:39.123Z,21.20
2017-05-11T15:45:08.337Z,20.80
2017-05-11T15:47:37.603Z,21.00
2017-05-11T15:50:06.793Z,20.40
2017-05-11T15:52:35.997Z,20.60
2017-05-11T15:55:05.204Z,20.60
2017-05-11T15:57:34.404Z,20.80
2017-05-11T16:00:03.611Z,20.80
2017-05-11T16:02:32.836Z,20.60
2017-05-11T16:05:02.049Z,20.70
2017-05-11T16:07:31.331Z,20.90
2017-05-11T16:10:00.567Z,20.60
2017-05-11T16:12:29.743Z,20.60
2017-05-11T16:14:58.972Z,20.20
2017-05-11T16:17:28.203Z,20.10
2017-05-11T16:19:57.423Z,19.90
2017-05-11T16:22:26.685Z,19.80
2017-05-11T16:24:55.892Z,19.60
2017-05-11T16:27:25.227Z,19.50
2017-05-11T16:29:55.739Z,19.20
2017-05-11T16:32:24.926Z,19.00
2017-05-11T16:34:54.136Z,18.80
2017-05-11T16:37:23.406Z,18.60
2017-05-11T16:39:52.614Z,18.60
2017-05-11T16:42:21.839Z,18.50
2017-05-11T16:44:51.024Z,18.40
2017-05-11T16:47:20.261Z,18.30
2017-05-11T16:49:49.439Z,18.10
2017-05-11T16:52:18.639Z,18.10
2017-05-11T16:54:47.864Z,18.00
2017-05-11T16:57:17.075Z,18.10
2017-05-11T16:59:47.041Z,18.10
2017-05-11T17:02:16.232Z,18.20
2017-05-11T17:04:45.443Z,18.10
2017-05-11T17:07:14.648Z,18.10
2017-05-11T17:09:43.846Z,18.10
2017-05-11T17:12:13.051Z,18.00
2017-05-11T17:14:42.273Z,18.10
2017-05-11T17:17:11.482Z,18.10
2017-05-11T17:19:40.725Z,17.90
2017-05-11T17:22:10.049Z,17.60
2017-05-11T17:24:39.265Z,17.40
2017-05-11T17:27:08.560Z,17.60
2017-05-11T17:29:37.768Z,17.60
2017-05-11T17:32:06.976Z,17.60
2017-05-11T17:34:36.201Z,17.50
2017-05-11T17:37:05.390Z,17.30
2017-05-11T17:39:34.613Z,17.10
2017-05-11T17:42:03.823Z,16.90
2017-05-11T17:44:33.043Z,16.90
2017-05-11T17:47:02.235Z,16.80
2017-05-11T17:49:31.535Z,16.90
2017-05-11T17:52:00.870Z,16.90
2017-05-11T17:54:30.064Z,16.90
2017-05-11T17:56:59.326Z,17.00
2017-05-11T17:59:29.231Z,17.00
2017-05-11T18:01:59.676Z,16.80
2017-05-11T18:04:28.858Z,16.90
2017-05-11T18:06:58.095Z,16.90
2017-05-11T18:09:27.288Z,16.80
2017-05-11T18:11:56.485Z,16.80
2017-05-11T18:14:25.700Z,16.60
2017-05-11T18:16:54.899Z,16.50
2017-05-11T18:19:24.119Z,16.40
2017-05-11T18:21:53.443Z,16.30
2017-05-11T18:24:23.393Z,16.20
2017-05-11T18:26:52.645Z,16.10
2017-05-11T18:29:21.861Z,16.00
2017-05-11T18:31:51.835Z,15.80
2017-05-11T18:34:21.057Z,15.70
2017-05-11T18:36:50.270Z,15.60
2017-05-11T18:39:19.564Z,15.60
2017-05-11T18:41:48.775Z,15.50
2017-05-11T18:44:18.747Z,15.30
2017-05-11T18:46:47.945Z,15.30
2017-05-11T18:49:17.194Z,15.20
2017-05-11T18:51:47.192Z,15.10
2017-05-11T18:54:16.387Z,15.00
2017-05-11T18:56:45.612Z,15.00
2017-05-11T18:59:15.863Z,14.90
2017-05-11T19:01:45.059Z,15.00
2017-05-11T19:04:14.367Z,14.90
2017-05-11T19:06:43.551Z,14.90
2017-05-11T19:09:12.761Z,14.90
2017-05-11T19:11:41.985Z,14.80
2017-05-11T19:14:11.239Z,14.90
2017-05-11T19:16:41.207Z,14.70
2017-05-11T19:19:10.402Z,14.80
2017-05-11T19:21:39.574Z,14.80
2017-05-11T19:24:08.791Z,14.60
2017-05-11T19:26:39.421Z,14.50
2017-05-11T19:29:08.643Z,14.50
2017-05-11T19:31:37.843Z,14.50
2017-05-11T19:34:07.072Z,14.50
2017-05-11T19:36:36.340Z,14.50
2017-05-11T19:39:05.200Z,14.40
2017-05-11T19:41:34.436Z,14.30
2017-05-11T19:44:03.660Z,14.20
2017-05-11T19:46:33.540Z,14.20
2017-05-11T19:49:02.784Z,14.10
2017-05-11T19:51:32.004Z,14.10
2017-05-11T19:54:01.193Z,14.10
2017-05-11T19:56:30.408Z,14.10
2017-05-11T19:58:59.685Z,14.10
2017-05-11T20:01:28.892Z,14.10
2017-05-11T20:03:58.107Z,14.10
2017-05-11T20:06:27.317Z,14.00
2017-05-11T20:08:56.530Z,14.00
2017-05-11T20:11:25.769Z,14.00
2017-05-11T20:13:54.968Z,14.00
2017-05-11T20:16:24.180Z,13.90
2017-05-11T20:18:53.442Z,13.90
2017-05-11T20:21:22.714Z,13.80
2017-05-11T20:23:51.920Z,13.80
2017-05-11T20:26:21.116Z,13.70
2017-05-11T20:28:50.304Z,13.70
2017-05-11T20:31:19.543Z,13.60
2017-05-11T20:33:48.760Z,13.60
2017-05-11T20:36:18.023Z,13.70
2017-05-11T20:38:47.912Z,13.70
2017-05-11T20:41:17.131Z,13.60
2017-05-11T20:43:46.347Z,13.60
2017-05-11T20:46:15.565Z,13.60
2017-05-11T20:48:44.764Z,13.60
2017-05-11T20:51:13.953Z,13.60
2017-05-11T20:53:43.168Z,13.50
2017-05-11T20:56:12.375Z,13.50
2017-05-11T20:58:41.588Z,13.40
2017-05-11T21:01:11.452Z,13.40
2017-05-11T21:03:40.667Z,13.50
2017-05-11T21:06:09.883Z,13.50
2017-05-11T21:08:39.113Z,13.40
2017-05-11T21:11:09.075Z,13.30
2017-05-11T21:13:38.300Z,13.40
2017-05-11T21:16:07.516Z,13.40
2017-05-11T21:18:36.708Z,13.30
2017-05-11T21:21:05.948Z,13.40
2017-05-11T21:23:35.159Z,13.40
2017-05-11T21:26:04.397Z,13.40
2017-05-11T21:28:33.607Z,13.30
2017-05-11T21:31:02.804Z,13.30
2017-05-11T21:33:32.026Z,13.30
2017-05-11T21:36:01.991Z,13.30
2017-05-11T21:38:31.185Z,13.30
2017-05-11T21:41:00.364Z,13.30
2017-05-11T21:43:30.263Z,13.20
2017-05-11T21:45:59.467Z,13.20
2017-05-11T21:48:28.656Z,13.20
2017-05-11T21:50:57.863Z,13.20
2017-05-11T21:53:27.067Z,13.20
2017-05-11T21:55:56.268Z,13.30
2017-05-11T21:58:25.501Z,13.20
2017-05-11T22:00:54.708Z,13.30
2017-05-11T22:03:23.972Z,13.20
2017-05-11T22:05:53.167Z,13.20
2017-05-11T22:08:22.386Z,13.20
2017-05-11T22:10:51.608Z,13.10
2017-05-11T22:13:20.811Z,13.10
2017-05-11T22:15:50.076Z,13.10
2017-05-11T22:18:19.304Z,13.00
2017-05-11T22:20:48.512Z,13.00
2017-05-11T22:23:17.704Z,13.00
2017-05-11T22:25:46.903Z,13.00
2017-05-11T22:28:16.111Z,12.90
2017-05-11T22:30:45.295Z,12.90
2017-05-11T22:33:14.504Z,12.90
2017-05-11T22:35:43.740Z,12.90
2017-05-11T22:38:12.960Z,12.80
2017-05-11T22:40:42.154Z,12.70
2017-05-11T22:43:11.364Z,12.60
2017-05-11T22:45:40.576Z,12.70
2017-05-11T22:48:09.800Z,12.70
2017-05-11T22:50:38.993Z,12.70
2017-05-11T22:53:08.201Z,12.80
2017-05-11T22:55:37.391Z,12.90
2017-05-11T22:58:06.584Z,12.90
2017-05-11T23:00:35.817Z,12.90
2017-05-11T23:03:05.680Z,12.90
2017-05-11T23:05:34.913Z,12.90
2017-05-11T23:08:04.100Z,12.90
2017-05-11T23:10:33.276Z,12.90
2017-05-11T23:13:02.500Z,12.90
2017-05-11T23:15:31.691Z,12.90
2017-05-11T23:18:00.871Z,12.80
2017-05-11T23:20:30.093Z,12.80
2017-05-11T23:22:59.439Z,12.80
2017-05-11T23:25:28.639Z,12.80
2017-05-11T23:27:57.850Z,12.80
2017-05-11T23:30:27.735Z,12.80
2017-05-11T23:32:56.927Z,12.80
2017-05-11T23:35:26.140Z,12.70
2017-05-11T23:37:55.380Z,12.70
2017-05-11T23:40:24.572Z,12.70
2017-05-11T23:42:53.780Z,12.80
2017-05-11T23:45:22.984Z,12.80
2017-05-11T23:47:52.206Z,12.90
2017-05-11T23:50:21.415Z,12.90
2017-05-11T23:52:50.713Z,12.90
2017-05-11T23:55:20.631Z,12.90
2017-05-11T23:57:49.856Z,12.90
